KINJ

Details ICAO KINJ (INJ)
Name HILLSBORO MUNI
Region United States
Timezone America/Chicago (UTC-6.0)
Plans Departing 1
Arriving 1
Stats Elevation 685 ft / 209 m (AMSL)
Location 32.083486° -97.097228°
Runways 1
Magnetic Variation 3.474° E
Sunrise 2017-12-15 13:23:15 UTC / 2017-12-15 07:23:15 Local
Sunset 2017-12-15 23:26:53 UTC / 2017-12-15 17:26:53 Local
Advertisement - Login to hide

Runways

ID Width Length Bearing (true) Bearing (mag) Surface Threshold Offset Overrun Length
16 60 ft / 18 m 4,011 ft / 1,222 m 164.88° 161.41° Asphalt 0 ft / 0 m 0 ft / 0 m
34 60 ft / 18 m 4,011 ft / 1,222 m 344.88° 341.41° Asphalt 0 ft / 0 m 0 ft / 0 m

Map

Weather


0- 5 10 15 20 25 30 35+ Temperature / ° C

Clouds and Precipitation
Forecast for 2017-12-16 06:00 UTC. Updated 14 minutes ago

Ground ~20,000 ft ~40,000 ft Winds

METAR

KINJ 160535Z AUTO 16003KT 10SM CLR 03/M03 A3022 RMK AO2 T00341033

TAF

Not found

Frequencies

Recorded 118.72 MHz AWOS 3
Approach 135.20 MHz WACO APP/DEP
Unicom 122.90 MHz CTAF
Warning: Do not use this data for real-world aviation or navigation. No guarantee of current accuracy is given.